Terminal Aerodrome Forecast
Issued by NWS

Home | Current Version | Previous Version | Text Only | Print | Product List | Glossary On
Versions: 1 2 3 4 5 6 7 8 9 10 11 12
171
FTUS44 KSJT 231745
TAFJCT
TAF
KJCT 231745Z 2318/2418 16010KT P6SM FEW060
     FM232300 15006KT P6SM SKC
     FM241500 18008KT P6SM SKC=

USA.gov is the U.S. government's official web portal to all federal, state and local government web resources and services.